sensor_id;sensor_type;location;lat;lon;timestamp;P1;durP1;ratioP1;P2;durP2;ratioP2
41255;SDS011;26989;45.524;10.938;2024-01-25T00:01:52;78.07;;;34.95;;
41255;SDS011;26989;45.524;10.938;2024-01-25T00:04:20;66.53;;;31.00;;
41255;SDS011;26989;45.524;10.938;2024-01-25T00:06:48;58.33;;;29.83;;
41255;SDS011;26989;45.524;10.938;2024-01-25T00:09:15;59.42;;;30.98;;
41255;SDS011;26989;45.524;10.938;2024-01-25T00:11:42;61.75;;;31.35;;
41255;SDS011;26989;45.524;10.938;2024-01-25T00:14:10;68.18;;;32.10;;
41255;SDS011;26989;45.524;10.938;2024-01-25T00:16:40;62.38;;;30.90;;
41255;SDS011;26989;45.524;10.938;2024-01-25T00:19:08;71.40;;;31.90;;
41255;SDS011;26989;45.524;10.938;2024-01-25T00:21:35;70.25;;;30.75;;
41255;SDS011;26989;45.524;10.938;2024-01-25T00:26:34;69.68;;;30.60;;
41255;SDS011;26989;45.524;10.938;2024-01-25T00:29:01;62.65;;;30.55;;
41255;SDS011;26989;45.524;10.938;2024-01-25T00:31:28;61.83;;;29.15;;
41255;SDS011;26989;45.524;10.938;2024-01-25T00:33:59;63.35;;;29.92;;
41255;SDS011;26989;45.524;10.938;2024-01-25T00:36:27;62.55;;;30.85;;
41255;SDS011;26989;45.524;10.938;2024-01-25T00:38:54;65.70;;;31.85;;
41255;SDS011;26989;45.524;10.938;2024-01-25T00:41:21;64.47;;;31.05;;
41255;SDS011;26989;45.524;10.938;2024-01-25T00:43:49;63.85;;;30.67;;
41255;SDS011;26989;45.524;10.938;2024-01-25T00:46:16;63.67;;;32.28;;
41255;SDS011;26989;45.524;10.938;2024-01-25T00:48:43;68.10;;;29.38;;
41255;SDS011;26989;45.524;10.938;2024-01-25T00:51:14;57.50;;;29.85;;
41255;SDS011;26989;45.524;10.938;2024-01-25T00:53:42;62.93;;;29.20;;
41255;SDS011;26989;45.524;10.938;2024-01-25T00:56:09;66.07;;;31.00;;
41255;SDS011;26989;45.524;10.938;2024-01-25T00:58:37;65.45;;;31.17;;
41255;SDS011;26989;45.524;10.938;2024-01-25T01:01:05;64.85;;;30.95;;
41255;SDS011;26989;45.524;10.938;2024-01-25T01:03:32;60.28;;;29.98;;
41255;SDS011;26989;45.524;10.938;2024-01-25T01:06:00;67.90;;;28.63;;
41255;SDS011;26989;45.524;10.938;2024-01-25T01:08:27;60.55;;;28.70;;
41255;SDS011;26989;45.524;10.938;2024-01-25T01:10:54;64.95;;;32.78;;
41255;SDS011;26989;45.524;10.938;2024-01-25T01:13:21;63.88;;;32.03;;
41255;SDS011;26989;45.524;10.938;2024-01-25T01:15:48;71.72;;;32.72;;
41255;SDS011;26989;45.524;10.938;2024-01-25T01:18:16;64.13;;;31.42;;
41255;SDS011;26989;45.524;10.938;2024-01-25T01:20:43;64.18;;;32.20;;
41255;SDS011;26989;45.524;10.938;2024-01-25T01:23:10;69.43;;;32.10;;
41255;SDS011;26989;45.524;10.938;2024-01-25T01:25:36;61.60;;;30.48;;
41255;SDS011;26989;45.524;10.938;2024-01-25T01:28:03;55.60;;;28.65;;
41255;SDS011;26989;45.524;10.938;2024-01-25T01:30:30;66.55;;;32.97;;
41255;SDS011;26989;45.524;10.938;2024-01-25T01:32:57;62.13;;;31.48;;
41255;SDS011;26989;45.524;10.938;2024-01-25T01:35:24;65.07;;;31.98;;
41255;SDS011;26989;45.524;10.938;2024-01-25T01:37:52;65.10;;;32.85;;
41255;SDS011;26989;45.524;10.938;2024-01-25T01:40:18;65.82;;;34.33;;
41255;SDS011;26989;45.524;10.938;2024-01-25T01:42:45;78.25;;;34.45;;
41255;SDS011;26989;45.524;10.938;2024-01-25T01:45:12;67.32;;;32.47;;
41255;SDS011;26989;45.524;10.938;2024-01-25T01:47:40;68.55;;;33.10;;
41255;SDS011;26989;45.524;10.938;2024-01-25T01:50:08;77.25;;;36.03;;
41255;SDS011;26989;45.524;10.938;2024-01-25T01:52:36;78.18;;;38.00;;
41255;SDS011;26989;45.524;10.938;2024-01-25T01:55:03;92.88;;;40.38;;
41255;SDS011;26989;45.524;10.938;2024-01-25T01:57:31;87.65;;;38.50;;
41255;SDS011;26989;45.524;10.938;2024-01-25T01:59:58;72.68;;;34.55;;
41255;SDS011;26989;45.524;10.938;2024-01-25T02:02:26;84.13;;;40.03;;
41255;SDS011;26989;45.524;10.938;2024-01-25T02:04:54;70.60;;;34.35;;
41255;SDS011;26989;45.524;10.938;2024-01-25T02:07:20;69.45;;;34.00;;
41255;SDS011;26989;45.524;10.938;2024-01-25T02:09:48;64.53;;;33.33;;
41255;SDS011;26989;45.524;10.938;2024-01-25T02:12:15;69.40;;;34.55;;
41255;SDS011;26989;45.524;10.938;2024-01-25T02:14:43;65.50;;;30.35;;
41255;SDS011;26989;45.524;10.938;2024-01-25T02:17:11;78.13;;;35.75;;
41255;SDS011;26989;45.524;10.938;2024-01-25T02:19:38;66.38;;;31.90;;
41255;SDS011;26989;45.524;10.938;2024-01-25T02:22:05;64.93;;;34.03;;
41255;SDS011;26989;45.524;10.938;2024-01-25T02:24:33;69.50;;;31.80;;
41255;SDS011;26989;45.524;10.938;2024-01-25T02:27:00;67.85;;;32.92;;
41255;SDS011;26989;45.524;10.938;2024-01-25T02:29:28;64.13;;;32.22;;
41255;SDS011;26989;45.524;10.938;2024-01-25T02:31:54;61.30;;;31.05;;
41255;SDS011;26989;45.524;10.938;2024-01-25T02:34:21;71.50;;;34.05;;
41255;SDS011;26989;45.524;10.938;2024-01-25T02:36:48;67.07;;;32.42;;
41255;SDS011;26989;45.524;10.938;2024-01-25T02:39:16;70.30;;;34.80;;
41255;SDS011;26989;45.524;10.938;2024-01-25T02:41:43;68.35;;;36.15;;
41255;SDS011;26989;45.524;10.938;2024-01-25T02:44:11;75.18;;;36.35;;
41255;SDS011;26989;45.524;10.938;2024-01-25T02:46:38;66.35;;;33.67;;
41255;SDS011;26989;45.524;10.938;2024-01-25T02:49:05;69.53;;;35.08;;
41255;SDS011;26989;45.524;10.938;2024-01-25T02:51:32;70.18;;;32.83;;
41255;SDS011;26989;45.524;10.938;2024-01-25T02:53:59;67.13;;;31.63;;
41255;SDS011;26989;45.524;10.938;2024-01-25T02:56:26;70.82;;;34.97;;
41255;SDS011;26989;45.524;10.938;2024-01-25T02:59:00;59.85;;;30.80;;
41255;SDS011;26989;45.524;10.938;2024-01-25T03:01:37;70.55;;;34.47;;
41255;SDS011;26989;45.524;10.938;2024-01-25T03:04:08;60.10;;;28.63;;
41255;SDS011;26989;45.524;10.938;2024-01-25T03:06:35;74.38;;;33.95;;
41255;SDS011;26989;45.524;10.938;2024-01-25T03:09:02;67.68;;;34.80;;
41255;SDS011;26989;45.524;10.938;2024-01-25T03:11:32;67.43;;;34.92;;
41255;SDS011;26989;45.524;10.938;2024-01-25T03:13:59;63.13;;;31.92;;
41255;SDS011;26989;45.524;10.938;2024-01-25T03:16:26;63.38;;;32.10;;
41255;SDS011;26989;45.524;10.938;2024-01-25T03:18:53;71.22;;;35.00;;
41255;SDS011;26989;45.524;10.938;2024-01-25T03:21:20;67.00;;;34.78;;
41255;SDS011;26989;45.524;10.938;2024-01-25T03:23:47;69.80;;;37.45;;
41255;SDS011;26989;45.524;10.938;2024-01-25T03:26:14;68.95;;;34.70;;
41255;SDS011;26989;45.524;10.938;2024-01-25T03:28:41;68.93;;;35.00;;
41255;SDS011;26989;45.524;10.938;2024-01-25T03:31:08;68.15;;;34.72;;
41255;SDS011;26989;45.524;10.938;2024-01-25T03:33:35;74.15;;;36.88;;
41255;SDS011;26989;45.524;10.938;2024-01-25T03:36:03;70.80;;;35.67;;
41255;SDS011;26989;45.524;10.938;2024-01-25T03:38:30;71.38;;;34.70;;
41255;SDS011;26989;45.524;10.938;2024-01-25T03:40:58;74.88;;;37.55;;
41255;SDS011;26989;45.524;10.938;2024-01-25T03:43:25;71.47;;;33.88;;
41255;SDS011;26989;45.524;10.938;2024-01-25T03:45:58;67.03;;;34.97;;
41255;SDS011;26989;45.524;10.938;2024-01-25T03:48:26;72.60;;;35.53;;
41255;SDS011;26989;45.524;10.938;2024-01-25T03:50:52;68.47;;;33.05;;
41255;SDS011;26989;45.524;10.938;2024-01-25T03:53:22;73.70;;;34.75;;
41255;SDS011;26989;45.524;10.938;2024-01-25T03:55:49;69.10;;;33.65;;
41255;SDS011;26989;45.524;10.938;2024-01-25T03:58:17;61.13;;;33.20;;
41255;SDS011;26989;45.524;10.938;2024-01-25T04:00:47;65.30;;;33.38;;
41255;SDS011;26989;45.524;10.938;2024-01-25T04:03:14;68.72;;;34.42;;
41255;SDS011;26989;45.524;10.938;2024-01-25T04:05:41;78.25;;;35.55;;
41255;SDS011;26989;45.524;10.938;2024-01-25T04:08:08;70.63;;;36.00;;
41255;SDS011;26989;45.524;10.938;2024-01-25T04:10:35;69.78;;;33.72;;
41255;SDS011;26989;45.524;10.938;2024-01-25T04:13:02;68.32;;;32.63;;
41255;SDS011;26989;45.524;10.938;2024-01-25T04:15:31;60.25;;;32.78;;
41255;SDS011;26989;45.524;10.938;2024-01-25T04:17:58;68.03;;;34.53;;
41255;SDS011;26989;45.524;10.938;2024-01-25T04:20:25;65.60;;;32.75;;
41255;SDS011;26989;45.524;10.938;2024-01-25T04:22:52;72.05;;;35.88;;
41255;SDS011;26989;45.524;10.938;2024-01-25T04:25:19;70.30;;;32.95;;
41255;SDS011;26989;45.524;10.938;2024-01-25T04:27:46;60.22;;;31.08;;
41255;SDS011;26989;45.524;10.938;2024-01-25T04:30:13;66.43;;;34.05;;
41255;SDS011;26989;45.524;10.938;2024-01-25T04:32:40;71.85;;;32.50;;
41255;SDS011;26989;45.524;10.938;2024-01-25T04:35:08;69.25;;;33.88;;
41255;SDS011;26989;45.524;10.938;2024-01-25T04:37:36;62.90;;;32.17;;
41255;SDS011;26989;45.524;10.938;2024-01-25T04:40:03;68.25;;;32.90;;
41255;SDS011;26989;45.524;10.938;2024-01-25T04:42:31;61.83;;;31.10;;
41255;SDS011;26989;45.524;10.938;2024-01-25T04:44:58;70.43;;;30.98;;
41255;SDS011;26989;45.524;10.938;2024-01-25T04:47:25;62.28;;;34.15;;
41255;SDS011;26989;45.524;10.938;2024-01-25T04:49:52;73.13;;;34.55;;
41255;SDS011;26989;45.524;10.938;2024-01-25T04:52:19;61.65;;;30.17;;
41255;SDS011;26989;45.524;10.938;2024-01-25T04:54:46;65.55;;;34.80;;
41255;SDS011;26989;45.524;10.938;2024-01-25T04:57:13;69.65;;;33.30;;
41255;SDS011;26989;45.524;10.938;2024-01-25T04:59:40;64.55;;;32.83;;
41255;SDS011;26989;45.524;10.938;2024-01-25T05:02:07;71.82;;;33.70;;
41255;SDS011;26989;45.524;10.938;2024-01-25T05:04:34;61.72;;;30.42;;
41255;SDS011;26989;45.524;10.938;2024-01-25T05:07:02;58.97;;;32.70;;
41255;SDS011;26989;45.524;10.938;2024-01-25T05:09:29;67.35;;;35.85;;
41255;SDS011;26989;45.524;10.938;2024-01-25T05:11:57;73.65;;;36.38;;
41255;SDS011;26989;45.524;10.938;2024-01-25T05:14:26;66.97;;;33.28;;
41255;SDS011;26989;45.524;10.938;2024-01-25T05:16:53;67.03;;;33.85;;
41255;SDS011;26989;45.524;10.938;2024-01-25T05:19:19;68.63;;;35.45;;
41255;SDS011;26989;45.524;10.938;2024-01-25T05:21:46;66.88;;;35.63;;
41255;SDS011;26989;45.524;10.938;2024-01-25T05:24:13;69.30;;;35.00;;
41255;SDS011;26989;45.524;10.938;2024-01-25T05:26:40;63.72;;;34.08;;
41255;SDS011;26989;45.524;10.938;2024-01-25T05:29:07;70.10;;;33.05;;
41255;SDS011;26989;45.524;10.938;2024-01-25T05:31:34;74.72;;;36.20;;
41255;SDS011;26989;45.524;10.938;2024-01-25T05:34:01;61.38;;;30.58;;
41255;SDS011;26989;45.524;10.938;2024-01-25T05:36:29;71.35;;;35.47;;
41255;SDS011;26989;45.524;10.938;2024-01-25T05:38:56;79.93;;;35.92;;
41255;SDS011;26989;45.524;10.938;2024-01-25T05:41:22;72.55;;;36.20;;
41255;SDS011;26989;45.524;10.938;2024-01-25T05:43:49;65.28;;;31.95;;
41255;SDS011;26989;45.524;10.938;2024-01-25T05:46:16;65.65;;;33.50;;
41255;SDS011;26989;45.524;10.938;2024-01-25T05:48:43;70.70;;;32.58;;
41255;SDS011;26989;45.524;10.938;2024-01-25T05:51:11;67.07;;;31.83;;
41255;SDS011;26989;45.524;10.938;2024-01-25T05:53:40;75.75;;;35.22;;
41255;SDS011;26989;45.524;10.938;2024-01-25T05:56:07;72.68;;;36.63;;
41255;SDS011;26989;45.524;10.938;2024-01-25T05:58:34;74.53;;;35.10;;
41255;SDS011;26989;45.524;10.938;2024-01-25T06:01:01;73.95;;;35.45;;
41255;SDS011;26989;45.524;10.938;2024-01-25T06:03:29;73.05;;;35.13;;
41255;SDS011;26989;45.524;10.938;2024-01-25T06:05:56;71.88;;;37.17;;
41255;SDS011;26989;45.524;10.938;2024-01-25T06:08:23;76.53;;;34.40;;
41255;SDS011;26989;45.524;10.938;2024-01-25T06:10:50;71.25;;;34.53;;
41255;SDS011;26989;45.524;10.938;2024-01-25T06:13:17;74.55;;;36.63;;
41255;SDS011;26989;45.524;10.938;2024-01-25T06:15:44;72.45;;;36.78;;
41255;SDS011;26989;45.524;10.938;2024-01-25T06:18:11;75.80;;;38.38;;
41255;SDS011;26989;45.524;10.938;2024-01-25T06:20:38;76.65;;;36.20;;
41255;SDS011;26989;45.524;10.938;2024-01-25T06:23:05;71.00;;;33.50;;
41255;SDS011;26989;45.524;10.938;2024-01-25T06:25:32;77.75;;;38.15;;
41255;SDS011;26989;45.524;10.938;2024-01-25T06:28:00;76.85;;;36.40;;
41255;SDS011;26989;45.524;10.938;2024-01-25T06:30:28;59.85;;;31.20;;
41255;SDS011;26989;45.524;10.938;2024-01-25T06:32:55;74.47;;;34.63;;
41255;SDS011;26989;45.524;10.938;2024-01-25T06:35:22;69.53;;;36.10;;
41255;SDS011;26989;45.524;10.938;2024-01-25T06:37:49;76.38;;;38.15;;
41255;SDS011;26989;45.524;10.938;2024-01-25T06:40:16;79.97;;;38.20;;
41255;SDS011;26989;45.524;10.938;2024-01-25T06:42:44;78.65;;;36.10;;
41255;SDS011;26989;45.524;10.938;2024-01-25T06:45:11;71.47;;;36.03;;
41255;SDS011;26989;45.524;10.938;2024-01-25T06:47:38;81.68;;;40.20;;
41255;SDS011;26989;45.524;10.938;2024-01-25T06:50:05;74.55;;;36.00;;
41255;SDS011;26989;45.524;10.938;2024-01-25T06:52:33;61.47;;;27.63;;
41255;SDS011;26989;45.524;10.938;2024-01-25T06:55:00;68.30;;;31.88;;
41255;SDS011;26989;45.524;10.938;2024-01-25T06:57:27;74.75;;;35.28;;
41255;SDS011;26989;45.524;10.938;2024-01-25T06:59:54;70.63;;;34.30;;
41255;SDS011;26989;45.524;10.938;2024-01-25T07:02:21;74.05;;;34.83;;
41255;SDS011;26989;45.524;10.938;2024-01-25T07:04:48;66.80;;;34.65;;
41255;SDS011;26989;45.524;10.938;2024-01-25T07:07:19;70.00;;;35.25;;
41255;SDS011;26989;45.524;10.938;2024-01-25T07:09:46;72.03;;;36.00;;
41255;SDS011;26989;45.524;10.938;2024-01-25T07:12:13;72.90;;;36.15;;
41255;SDS011;26989;45.524;10.938;2024-01-25T07:14:40;69.28;;;35.38;;
41255;SDS011;26989;45.524;10.938;2024-01-25T07:17:07;69.53;;;36.53;;
41255;SDS011;26989;45.524;10.938;2024-01-25T07:19:34;68.45;;;36.65;;
41255;SDS011;26989;45.524;10.938;2024-01-25T07:22:01;75.32;;;38.20;;
41255;SDS011;26989;45.524;10.938;2024-01-25T07:24:28;80.82;;;38.60;;
41255;SDS011;26989;45.524;10.938;2024-01-25T07:26:55;81.55;;;39.50;;
41255;SDS011;26989;45.524;10.938;2024-01-25T07:29:22;78.68;;;37.65;;
41255;SDS011;26989;45.524;10.938;2024-01-25T07:31:49;70.78;;;34.75;;
41255;SDS011;26989;45.524;10.938;2024-01-25T07:34:17;68.45;;;35.40;;
41255;SDS011;26989;45.524;10.938;2024-01-25T07:36:44;87.70;;;40.20;;
41255;SDS011;26989;45.524;10.938;2024-01-25T07:39:11;83.03;;;42.25;;
41255;SDS011;26989;45.524;10.938;2024-01-25T07:41:38;77.13;;;37.63;;
41255;SDS011;26989;45.524;10.938;2024-01-25T07:44:05;74.28;;;38.47;;
41255;SDS011;26989;45.524;10.938;2024-01-25T07:46:32;78.60;;;36.75;;
41255;SDS011;26989;45.524;10.938;2024-01-25T07:48:59;67.10;;;34.33;;
41255;SDS011;26989;45.524;10.938;2024-01-25T07:51:26;64.35;;;32.50;;
41255;SDS011;26989;45.524;10.938;2024-01-25T07:53:55;69.80;;;36.83;;
41255;SDS011;26989;45.524;10.938;2024-01-25T07:56:22;74.53;;;36.00;;
41255;SDS011;26989;45.524;10.938;2024-01-25T07:58:49;68.78;;;35.00;;
41255;SDS011;26989;45.524;10.938;2024-01-25T08:01:19;75.43;;;37.72;;
41255;SDS011;26989;45.524;10.938;2024-01-25T08:03:47;77.47;;;37.93;;
41255;SDS011;26989;45.524;10.938;2024-01-25T08:06:14;75.97;;;37.50;;
41255;SDS011;26989;45.524;10.938;2024-01-25T08:08:41;76.78;;;36.70;;
41255;SDS011;26989;45.524;10.938;2024-01-25T08:11:08;76.30;;;37.15;;
41255;SDS011;26989;45.524;10.938;2024-01-25T08:13:35;73.70;;;37.22;;
41255;SDS011;26989;45.524;10.938;2024-01-25T08:16:02;63.78;;;33.40;;
41255;SDS011;26989;45.524;10.938;2024-01-25T08:18:29;70.30;;;36.75;;
41255;SDS011;26989;45.524;10.938;2024-01-25T08:20:57;70.80;;;36.20;;
41255;SDS011;26989;45.524;10.938;2024-01-25T08:23:25;73.30;;;36.67;;
41255;SDS011;26989;45.524;10.938;2024-01-25T08:25:52;74.40;;;38.45;;
41255;SDS011;26989;45.524;10.938;2024-01-25T08:28:18;89.18;;;43.30;;
41255;SDS011;26989;45.524;10.938;2024-01-25T08:30:46;132.65;;;59.20;;
41255;SDS011;26989;45.524;10.938;2024-01-25T08:33:13;98.28;;;48.15;;
41255;SDS011;26989;45.524;10.938;2024-01-25T08:35:40;84.90;;;42.65;;
41255;SDS011;26989;45.524;10.938;2024-01-25T08:38:08;90.10;;;46.17;;
41255;SDS011;26989;45.524;10.938;2024-01-25T08:40:34;91.72;;;43.75;;
41255;SDS011;26989;45.524;10.938;2024-01-25T08:43:02;85.20;;;44.28;;
41255;SDS011;26989;45.524;10.938;2024-01-25T08:45:30;90.43;;;44.65;;
41255;SDS011;26989;45.524;10.938;2024-01-25T08:47:58;104.03;;;48.53;;
41255;SDS011;26989;45.524;10.938;2024-01-25T08:50:26;107.47;;;52.47;;
41255;SDS011;26989;45.524;10.938;2024-01-25T08:52:54;104.80;;;49.22;;
41255;SDS011;26989;45.524;10.938;2024-01-25T08:55:21;90.45;;;44.95;;
41255;SDS011;26989;45.524;10.938;2024-01-25T08:57:49;86.32;;;40.35;;
41255;SDS011;26989;45.524;10.938;2024-01-25T09:00:16;80.97;;;40.22;;
41255;SDS011;26989;45.524;10.938;2024-01-25T09:02:44;89.28;;;44.47;;
41255;SDS011;26989;45.524;10.938;2024-01-25T09:05:12;92.75;;;43.70;;
41255;SDS011;26989;45.524;10.938;2024-01-25T09:07:39;76.55;;;38.45;;
41255;SDS011;26989;45.524;10.938;2024-01-25T09:10:06;73.82;;;36.97;;
41255;SDS011;26989;45.524;10.938;2024-01-25T09:12:34;68.78;;;37.60;;
41255;SDS011;26989;45.524;10.938;2024-01-25T09:15:02;65.22;;;36.35;;
41255;SDS011;26989;45.524;10.938;2024-01-25T09:17:29;73.68;;;37.58;;
41255;SDS011;26989;45.524;10.938;2024-01-25T09:19:56;64.18;;;35.65;;
41255;SDS011;26989;45.524;10.938;2024-01-25T09:22:25;68.90;;;36.88;;
41255;SDS011;26989;45.524;10.938;2024-01-25T09:24:52;66.55;;;36.20;;
41255;SDS011;26989;45.524;10.938;2024-01-25T09:27:19;67.97;;;35.15;;
41255;SDS011;26989;45.524;10.938;2024-01-25T09:29:46;65.60;;;35.30;;
41255;SDS011;26989;45.524;10.938;2024-01-25T09:32:13;76.60;;;38.47;;
41255;SDS011;26989;45.524;10.938;2024-01-25T09:34:40;81.35;;;40.15;;
41255;SDS011;26989;45.524;10.938;2024-01-25T09:37:07;74.82;;;38.45;;
41255;SDS011;26989;45.524;10.938;2024-01-25T09:39:34;69.95;;;37.40;;
41255;SDS011;26989;45.524;10.938;2024-01-25T09:42:05;69.15;;;36.90;;
41255;SDS011;26989;45.524;10.938;2024-01-25T09:44:33;160.63;;;90.03;;
41255;SDS011;26989;45.524;10.938;2024-01-25T09:47:03;90.30;;;50.50;;
41255;SDS011;26989;45.524;10.938;2024-01-25T09:49:33;76.45;;;39.92;;
41255;SDS011;26989;45.524;10.938;2024-01-25T09:52:02;71.78;;;38.35;;
41255;SDS011;26989;45.524;10.938;2024-01-25T09:54:34;72.18;;;37.60;;
41255;SDS011;26989;45.524;10.938;2024-01-25T09:57:14;68.00;;;36.92;;
41255;SDS011;26989;45.524;10.938;2024-01-25T09:59:45;66.07;;;36.50;;
41255;SDS011;26989;45.524;10.938;2024-01-25T10:02:12;68.35;;;36.25;;
41255;SDS011;26989;45.524;10.938;2024-01-25T10:04:39;71.93;;;37.13;;
41255;SDS011;26989;45.524;10.938;2024-01-25T10:07:06;67.00;;;37.28;;
41255;SDS011;26989;45.524;10.938;2024-01-25T10:09:40;69.82;;;38.60;;
41255;SDS011;26989;45.524;10.938;2024-01-25T10:12:09;65.68;;;34.85;;
41255;SDS011;26989;45.524;10.938;2024-01-25T10:14:44;68.55;;;36.72;;
41255;SDS011;26989;45.524;10.938;2024-01-25T10:17:11;65.88;;;34.67;;
41255;SDS011;26989;45.524;10.938;2024-01-25T10:19:42;66.88;;;35.97;;
41255;SDS011;26989;45.524;10.938;2024-01-25T10:22:11;69.65;;;34.83;;
41255;SDS011;26989;45.524;10.938;2024-01-25T10:24:41;65.97;;;36.50;;
41255;SDS011;26989;45.524;10.938;2024-01-25T10:27:08;66.63;;;35.80;;
41255;SDS011;26989;45.524;10.938;2024-01-25T10:29:37;63.97;;;34.63;;
41255;SDS011;26989;45.524;10.938;2024-01-25T10:32:04;69.57;;;36.72;;
41255;SDS011;26989;45.524;10.938;2024-01-25T10:34:32;64.88;;;35.00;;
41255;SDS011;26989;45.524;10.938;2024-01-25T10:37:03;66.00;;;34.85;;
41255;SDS011;26989;45.524;10.938;2024-01-25T10:39:33;61.22;;;31.90;;
41255;SDS011;26989;45.524;10.938;2024-01-25T10:42:00;55.22;;;31.48;;
41255;SDS011;26989;45.524;10.938;2024-01-25T10:44:27;60.40;;;30.83;;
41255;SDS011;26989;45.524;10.938;2024-01-25T10:46:54;57.58;;;30.40;;
41255;SDS011;26989;45.524;10.938;2024-01-25T10:49:22;50.40;;;28.23;;
41255;SDS011;26989;45.524;10.938;2024-01-25T10:51:51;50.35;;;26.85;;
41255;SDS011;26989;45.524;10.938;2024-01-25T10:54:19;50.08;;;27.75;;
41255;SDS011;26989;45.524;10.938;2024-01-25T10:56:46;56.78;;;29.10;;
41255;SDS011;26989;45.524;10.938;2024-01-25T10:59:15;52.17;;;28.42;;
41255;SDS011;26989;45.524;10.938;2024-01-25T11:01:44;51.58;;;27.15;;
41255;SDS011;26989;45.524;10.938;2024-01-25T11:04:12;52.08;;;29.52;;
41255;SDS011;26989;45.524;10.938;2024-01-25T11:06:42;52.03;;;27.90;;
41255;SDS011;26989;45.524;10.938;2024-01-25T11:09:17;47.03;;;27.25;;
41255;SDS011;26989;45.524;10.938;2024-01-25T11:11:48;47.08;;;28.02;;
41255;SDS011;26989;45.524;10.938;2024-01-25T11:14:16;49.45;;;27.58;;
41255;SDS011;26989;45.524;10.938;2024-01-25T11:16:45;54.00;;;28.90;;
41255;SDS011;26989;45.524;10.938;2024-01-25T11:19:17;60.22;;;28.77;;
41255;SDS011;26989;45.524;10.938;2024-01-25T11:21:46;54.22;;;29.60;;
41255;SDS011;26989;45.524;10.938;2024-01-25T11:26:43;47.47;;;26.75;;
41255;SDS011;26989;45.524;10.938;2024-01-25T11:29:13;50.35;;;26.33;;
41255;SDS011;26989;45.524;10.938;2024-01-25T11:31:43;44.40;;;26.38;;
41255;SDS011;26989;45.524;10.938;2024-01-25T11:34:11;45.65;;;25.17;;
41255;SDS011;26989;45.524;10.938;2024-01-25T11:36:41;44.85;;;24.17;;
41255;SDS011;26989;45.524;10.938;2024-01-25T11:39:09;38.70;;;23.70;;
41255;SDS011;26989;45.524;10.938;2024-01-25T11:41:37;46.72;;;25.40;;
41255;SDS011;26989;45.524;10.938;2024-01-25T11:44:05;55.50;;;24.02;;
41255;SDS011;26989;45.524;10.938;2024-01-25T11:46:32;39.97;;;23.58;;
41255;SDS011;26989;45.524;10.938;2024-01-25T11:49:03;47.78;;;24.40;;
41255;SDS011;26989;45.524;10.938;2024-01-25T11:51:31;42.58;;;23.77;;
41255;SDS011;26989;45.524;10.938;2024-01-25T11:53:58;43.63;;;23.45;;
41255;SDS011;26989;45.524;10.938;2024-01-25T11:56:28;45.50;;;24.65;;
41255;SDS011;26989;45.524;10.938;2024-01-25T11:58:59;44.22;;;23.95;;
41255;SDS011;26989;45.524;10.938;2024-01-25T12:01:26;44.35;;;23.63;;
41255;SDS011;26989;45.524;10.938;2024-01-25T12:03:54;44.00;;;22.98;;
41255;SDS011;26989;45.524;10.938;2024-01-25T12:06:22;42.00;;;22.95;;
41255;SDS011;26989;45.524;10.938;2024-01-25T12:08:50;48.25;;;23.88;;
41255;SDS011;26989;45.524;10.938;2024-01-25T12:11:18;41.55;;;23.08;;
41255;SDS011;26989;45.524;10.938;2024-01-25T12:13:48;44.45;;;23.85;;
41255;SDS011;26989;45.524;10.938;2024-01-25T12:16:15;39.97;;;23.25;;
41255;SDS011;26989;45.524;10.938;2024-01-25T12:18:43;47.53;;;24.55;;
41255;SDS011;26989;45.524;10.938;2024-01-25T12:21:13;41.60;;;22.65;;
41255;SDS011;26989;45.524;10.938;2024-01-25T12:23:40;46.58;;;23.55;;
41255;SDS011;26989;45.524;10.938;2024-01-25T12:26:10;44.35;;;23.95;;
41255;SDS011;26989;45.524;10.938;2024-01-25T12:28:40;42.03;;;23.98;;
41255;SDS011;26989;45.524;10.938;2024-01-25T12:31:07;49.28;;;25.20;;
41255;SDS011;26989;45.524;10.938;2024-01-25T12:33:35;47.67;;;23.98;;
41255;SDS011;26989;45.524;10.938;2024-01-25T12:36:03;40.45;;;23.58;;
41255;SDS011;26989;45.524;10.938;2024-01-25T12:38:31;44.33;;;24.13;;
41255;SDS011;26989;45.524;10.938;2024-01-25T12:41:01;43.35;;;23.65;;
41255;SDS011;26989;45.524;10.938;2024-01-25T12:43:29;44.78;;;23.58;;
41255;SDS011;26989;45.524;10.938;2024-01-25T12:45:58;44.85;;;24.20;;
41255;SDS011;26989;45.524;10.938;2024-01-25T12:48:42;47.78;;;24.60;;
41255;SDS011;26989;45.524;10.938;2024-01-25T12:51:10;45.95;;;24.85;;
41255;SDS011;26989;45.524;10.938;2024-01-25T12:53:37;50.35;;;25.33;;
41255;SDS011;26989;45.524;10.938;2024-01-25T12:56:04;47.45;;;24.88;;
41255;SDS011;26989;45.524;10.938;2024-01-25T12:58:31;46.75;;;25.77;;
41255;SDS011;26989;45.524;10.938;2024-01-25T13:00:59;47.15;;;26.30;;
41255;SDS011;26989;45.524;10.938;2024-01-25T13:03:26;43.00;;;25.30;;
41255;SDS011;26989;45.524;10.938;2024-01-25T13:05:53;43.28;;;24.65;;
41255;SDS011;26989;45.524;10.938;2024-01-25T13:08:20;44.60;;;24.65;;
41255;SDS011;26989;45.524;10.938;2024-01-25T13:10:47;44.38;;;24.75;;
41255;SDS011;26989;45.524;10.938;2024-01-25T13:13:14;44.50;;;25.17;;
41255;SDS011;26989;45.524;10.938;2024-01-25T13:15:41;49.83;;;24.85;;
41255;SDS011;26989;45.524;10.938;2024-01-25T13:18:08;52.67;;;25.40;;
41255;SDS011;26989;45.524;10.938;2024-01-25T13:20:35;46.58;;;25.48;;
41255;SDS011;26989;45.524;10.938;2024-01-25T13:23:02;43.08;;;25.45;;
41255;SDS011;26989;45.524;10.938;2024-01-25T13:25:31;48.80;;;27.13;;
41255;SDS011;26989;45.524;10.938;2024-01-25T13:27:57;48.72;;;26.58;;
41255;SDS011;26989;45.524;10.938;2024-01-25T13:30:24;48.00;;;26.77;;
41255;SDS011;26989;45.524;10.938;2024-01-25T13:32:52;44.58;;;26.15;;
41255;SDS011;26989;45.524;10.938;2024-01-25T13:35:20;43.20;;;25.98;;
41255;SDS011;26989;45.524;10.938;2024-01-25T13:37:47;43.10;;;24.58;;
41255;SDS011;26989;45.524;10.938;2024-01-25T13:40:14;47.47;;;26.40;;
41255;SDS011;26989;45.524;10.938;2024-01-25T13:42:42;45.40;;;25.63;;
41255;SDS011;26989;45.524;10.938;2024-01-25T13:45:10;43.35;;;26.48;;
41255;SDS011;26989;45.524;10.938;2024-01-25T13:47:37;47.97;;;25.88;;
41255;SDS011;26989;45.524;10.938;2024-01-25T13:50:04;49.65;;;26.67;;
41255;SDS011;26989;45.524;10.938;2024-01-25T13:52:31;46.80;;;27.70;;
41255;SDS011;26989;45.524;10.938;2024-01-25T13:54:58;43.30;;;25.25;;
41255;SDS011;26989;45.524;10.938;2024-01-25T13:57:25;54.70;;;26.67;;
41255;SDS011;26989;45.524;10.938;2024-01-25T13:59:52;47.35;;;25.92;;
41255;SDS011;26989;45.524;10.938;2024-01-25T14:02:19;52.58;;;26.35;;
41255;SDS011;26989;45.524;10.938;2024-01-25T14:04:45;48.92;;;26.90;;
41255;SDS011;26989;45.524;10.938;2024-01-25T14:07:14;50.15;;;27.50;;
41255;SDS011;26989;45.524;10.938;2024-01-25T14:09:43;45.50;;;25.42;;
41255;SDS011;26989;45.524;10.938;2024-01-25T14:12:11;49.72;;;26.20;;
41255;SDS011;26989;45.524;10.938;2024-01-25T14:14:38;46.72;;;26.55;;
41255;SDS011;26989;45.524;10.938;2024-01-25T14:17:05;50.67;;;27.20;;